createdAt,value
2022-11-12T00:00:31.029Z,1020.14
2022-11-12T00:01:31.020Z,1020.19
2022-11-12T00:02:30.982Z,1020.17
2022-11-12T00:03:31.253Z,1020.22
2022-11-12T00:04:30.963Z,1020.25
2022-11-12T00:05:31.273Z,1020.25
2022-11-12T00:06:30.961Z,1020.29
2022-11-12T00:07:30.952Z,1020.26
2022-11-12T00:08:30.985Z,1020.23
2022-11-12T00:09:30.944Z,1020.29
2022-11-12T00:10:31.501Z,1020.29
2022-11-12T00:11:30.930Z,1020.28
2022-11-12T00:12:30.911Z,1020.27
2022-11-12T00:13:30.948Z,1020.30
2022-11-12T00:14:30.937Z,1020.34
2022-11-12T00:15:30.910Z,1020.38
2022-11-12T00:16:30.899Z,1020.32
2022-11-12T00:17:30.940Z,1020.34
2022-11-12T00:18:30.939Z,1020.38
2022-11-12T00:19:30.870Z,1020.42
2022-11-12T00:20:30.868Z,1020.33
2022-11-12T00:21:30.876Z,1020.41
2022-11-12T00:22:30.852Z,1020.41
2022-11-12T00:23:30.870Z,1020.40
2022-11-12T00:24:30.837Z,1020.41
2022-11-12T00:25:30.878Z,1020.39
2022-11-12T00:26:30.830Z,1020.39
2022-11-12T00:27:30.827Z,1020.45
2022-11-12T00:28:36.346Z,1020.45
2022-11-12T00:29:30.809Z,1020.41
2022-11-12T00:30:30.804Z,1020.40
2022-11-12T00:31:31.045Z,1020.44
2022-11-12T00:32:30.777Z,1020.47
2022-11-12T00:33:30.827Z,1020.48
2022-11-12T00:34:30.776Z,1020.49
2022-11-12T00:35:31.266Z,1020.46
2022-11-12T00:36:31.055Z,1020.48
2022-11-12T00:37:31.294Z,1020.51
2022-11-12T00:38:31.296Z,1020.51
2022-11-12T00:39:30.742Z,1020.51
2022-11-12T00:40:30.727Z,1020.51
2022-11-12T00:41:30.737Z,1020.52
2022-11-12T00:42:30.713Z,1020.54
2022-11-12T00:43:30.744Z,1020.57
2022-11-12T00:44:30.707Z,1020.58
2022-11-12T00:45:30.742Z,1020.64
2022-11-12T00:46:30.695Z,1020.63
2022-11-12T00:47:30.693Z,1020.58
2022-11-12T00:48:30.764Z,1020.64
2022-11-12T00:49:30.702Z,1020.62
2022-11-12T00:50:30.671Z,1020.60
2022-11-12T00:51:30.680Z,1020.63
2022-11-12T00:52:30.751Z,1020.59
2022-11-12T00:53:30.672Z,1020.57
2022-11-12T00:54:30.654Z,1020.60
2022-11-12T00:55:30.642Z,1020.65
2022-11-12T00:56:35.310Z,1020.64
2022-11-12T00:57:30.820Z,1020.63
2022-11-12T00:58:30.841Z,1020.63
2022-11-12T00:59:30.611Z,1020.63
2022-11-12T01:00:30.601Z,1020.70
2022-11-12T01:01:30.635Z,1020.73
2022-11-12T01:02:30.749Z,1020.66
2022-11-12T01:03:30.631Z,1020.73
2022-11-12T01:04:30.621Z,1020.75
2022-11-12T01:05:31.047Z,1020.69
2022-11-12T01:06:30.839Z,1020.72
2022-11-12T01:07:30.592Z,1020.73
2022-11-12T01:08:30.810Z,1020.75
2022-11-12T01:09:30.548Z,1020.76
2022-11-12T01:10:30.536Z,1020.74
2022-11-12T01:11:30.540Z,1020.75
2022-11-12T01:12:31.090Z,1020.83
2022-11-12T01:13:30.538Z,1020.83
2022-11-12T01:14:30.536Z,1020.81
2022-11-12T01:15:30.526Z,1020.81
2022-11-12T01:16:30.548Z,1020.76
2022-11-12T01:17:30.526Z,1020.83
2022-11-12T01:18:30.558Z,1020.78
2022-11-12T01:19:30.525Z,1020.82
2022-11-12T01:20:30.486Z,1020.80
2022-11-12T01:21:30.735Z,1020.78
2022-11-12T01:22:30.492Z,1020.82
2022-11-12T01:23:30.796Z,1020.80
2022-11-12T01:24:30.446Z,1020.80
2022-11-12T01:25:30.971Z,1020.87
2022-11-12T01:26:30.443Z,1020.83
2022-11-12T01:27:30.504Z,1020.85
2022-11-12T01:28:30.594Z,1020.83
2022-11-12T01:29:30.601Z,1020.88
2022-11-12T01:30:30.414Z,1020.83
2022-11-12T01:31:30.655Z,1020.84
2022-11-12T01:32:30.823Z,1020.92
2022-11-12T01:33:30.832Z,1020.91
2022-11-12T01:34:30.833Z,1020.95
2022-11-12T01:35:30.631Z,1020.90
2022-11-12T01:36:30.482Z,1020.93
2022-11-12T01:37:30.472Z,1020.91
2022-11-12T01:38:30.654Z,1020.94
2022-11-12T01:39:30.482Z,1020.93
2022-11-12T01:40:31.120Z,1020.89
2022-11-12T01:41:30.658Z,1020.92
2022-11-12T01:42:30.521Z,1020.92
2022-11-12T01:43:30.879Z,1020.90
2022-11-12T01:44:31.310Z,1020.88
2022-11-12T01:45:31.258Z,1020.91
2022-11-12T01:46:30.339Z,1020.87
2022-11-12T01:47:31.318Z,1020.73
2022-11-12T01:48:31.261Z,1020.88
2022-11-12T01:49:31.178Z,1020.87
2022-11-12T01:50:31.277Z,1020.87
2022-11-12T01:51:31.187Z,1020.81
2022-11-12T01:52:31.347Z,1020.79
2022-11-12T01:53:31.255Z,1020.82
2022-11-12T01:54:30.396Z,1020.79
2022-11-12T01:55:30.346Z,1020.80
2022-11-12T01:56:30.245Z,1020.76
2022-11-12T01:57:34.548Z,1020.75
2022-11-12T01:58:30.263Z,1020.73
2022-11-12T01:59:30.235Z,1020.75
2022-11-12T02:00:30.274Z,1020.71
2022-11-12T02:01:30.347Z,1020.75
2022-11-12T02:02:30.343Z,1020.73
2022-11-12T02:03:30.212Z,1020.69
2022-11-12T02:04:30.242Z,1020.71
2022-11-12T02:05:30.193Z,1020.75
2022-11-12T02:06:30.195Z,1020.68
2022-11-12T02:07:30.233Z,1020.71
2022-11-12T02:08:30.172Z,1020.71
2022-11-12T02:09:30.393Z,1020.74
2022-11-12T02:10:30.161Z,1020.74
2022-11-12T02:11:30.152Z,1020.71
2022-11-12T02:12:30.220Z,1020.77
2022-11-12T02:13:30.250Z,1020.74
2022-11-12T02:14:30.131Z,1020.72
2022-11-12T02:15:30.474Z,1020.68
2022-11-12T02:16:30.149Z,1020.65
2022-11-12T02:17:30.508Z,1020.65
2022-11-12T02:18:30.291Z,1020.76
2022-11-12T02:19:30.305Z,1020.65
2022-11-12T02:20:30.538Z,1020.73
2022-11-12T02:21:30.098Z,1020.66
2022-11-12T02:22:30.509Z,1020.72
2022-11-12T02:23:30.070Z,1020.73
2022-11-12T02:24:30.059Z,1020.75
2022-11-12T02:25:30.066Z,1020.74
2022-11-12T02:26:30.106Z,1020.76
2022-11-12T02:27:30.069Z,1020.68
2022-11-12T02:28:30.041Z,1020.73
2022-11-12T02:29:30.043Z,1020.74
2022-11-12T02:30:30.034Z,1020.75
2022-11-12T02:31:30.035Z,1020.75
2022-11-12T02:32:30.045Z,1020.78
2022-11-12T02:33:30.028Z,1020.78
2022-11-12T02:34:30.005Z,1020.85
2022-11-12T02:35:30.008Z,1020.81
2022-11-12T02:36:30.003Z,1020.78
2022-11-12T02:37:30.001Z,1020.82
2022-11-12T02:38:29.987Z,1020.84
2022-11-12T02:39:30.225Z,1020.85
2022-11-12T02:40:29.955Z,1020.90
2022-11-12T02:41:30.031Z,1020.89
2022-11-12T02:42:30.002Z,1020.86
2022-11-12T02:43:29.945Z,1020.92
2022-11-12T02:44:29.932Z,1020.87
2022-11-12T02:45:29.931Z,1020.90
2022-11-12T02:46:29.935Z,1020.87
2022-11-12T02:47:29.929Z,1020.89
2022-11-12T02:48:30.217Z,1020.88
2022-11-12T02:49:29.900Z,1020.91
2022-11-12T02:50:29.889Z,1020.94
2022-11-12T02:51:29.951Z,1020.96
2022-11-12T02:52:29.880Z,1020.96
2022-11-12T02:53:29.870Z,1020.91
2022-11-12T02:54:29.870Z,1020.91
2022-11-12T02:55:29.860Z,1020.95
2022-11-12T02:56:29.997Z,1020.94
2022-11-12T02:57:29.852Z,1020.97
2022-11-12T02:58:29.887Z,1020.94
2022-11-12T02:59:29.846Z,1020.95
2022-11-12T03:00:30.148Z,1020.95
2022-11-12T03:01:29.918Z,1020.92
2022-11-12T03:02:29.839Z,1020.93
2022-11-12T03:03:29.810Z,1020.89
2022-11-12T03:04:29.797Z,1020.83
2022-11-12T03:05:29.799Z,1020.84
2022-11-12T03:06:29.808Z,1020.82
2022-11-12T03:07:30.292Z,1020.81
2022-11-12T03:08:29.967Z,1020.78
2022-11-12T03:09:29.781Z,1020.79
2022-11-12T03:10:30.295Z,1020.75
2022-11-12T03:12:55.915Z,1020.69
2022-11-12T03:13:55.948Z,1020.78
2022-11-12T03:14:55.725Z,1020.79
2022-11-12T03:15:55.747Z,1020.78
2022-11-12T03:16:55.740Z,1020.84
2022-11-12T03:17:55.779Z,1020.80
2022-11-12T03:18:55.825Z,1020.78
2022-11-12T03:19:55.696Z,1020.80
2022-11-12T03:20:55.678Z,1020.77
2022-11-12T03:21:55.686Z,1020.82
2022-11-12T03:22:55.691Z,1020.81
2022-11-12T03:23:55.748Z,1020.81
2022-11-12T03:24:55.647Z,1020.74
2022-11-12T03:25:55.664Z,1020.78
2022-11-12T03:26:55.686Z,1020.79
2022-11-12T03:27:55.694Z,1020.82
2022-11-12T03:28:55.712Z,1020.82
2022-11-12T03:29:55.679Z,1020.75
2022-11-12T03:30:55.702Z,1020.83
2022-11-12T03:31:55.695Z,1020.75
2022-11-12T03:32:55.792Z,1020.75
2022-11-12T03:33:55.684Z,1020.75
2022-11-12T03:34:55.860Z,1020.75
2022-11-12T03:35:55.654Z,1020.75
2022-11-12T03:36:55.702Z,1020.74
2022-11-12T03:37:55.611Z,1020.69
2022-11-12T03:38:55.625Z,1020.62
2022-11-12T03:39:55.551Z,1020.65
2022-11-12T03:40:55.572Z,1020.62
2022-11-12T03:41:55.593Z,1020.61
2022-11-12T03:42:55.575Z,1020.66
2022-11-12T03:43:55.571Z,1020.63
2022-11-12T03:44:55.571Z,1020.62
2022-11-12T03:45:55.500Z,1020.61
2022-11-12T03:46:55.701Z,1020.62
2022-11-12T03:47:55.518Z,1020.70
2022-11-12T03:48:55.719Z,1020.64
2022-11-12T03:49:55.523Z,1020.68
2022-11-12T03:50:55.665Z,1020.67
2022-11-12T03:51:55.541Z,1020.63
2022-11-12T03:52:55.726Z,1020.62
2022-11-12T03:53:55.648Z,1020.60
2022-11-12T03:54:55.538Z,1020.62
2022-11-12T03:55:55.759Z,1020.58
2022-11-12T03:56:55.750Z,1020.63
2022-11-12T03:57:55.732Z,1020.57
2022-11-12T03:58:55.447Z,1020.58
2022-11-12T03:59:55.435Z,1020.58
2022-11-12T04:00:55.481Z,1020.55
2022-11-12T04:01:55.416Z,1020.54
2022-11-12T04:02:55.403Z,1020.49
2022-11-12T04:03:55.397Z,1020.46
2022-11-12T04:04:55.386Z,1020.47
2022-11-12T04:05:55.412Z,1020.47
2022-11-12T04:06:55.482Z,1020.47
2022-11-12T04:07:55.594Z,1020.47
2022-11-12T04:08:55.597Z,1020.46
2022-11-12T04:09:55.369Z,1020.47
2022-11-12T04:10:55.354Z,1020.44
2022-11-12T04:11:55.354Z,1020.43
2022-11-12T04:12:55.611Z,1020.42
2022-11-12T04:13:55.334Z,1020.48
2022-11-12T04:14:55.619Z,1020.45
2022-11-12T04:15:55.622Z,1020.44
2022-11-12T04:16:55.357Z,1020.41
2022-11-12T04:17:55.642Z,1020.36
2022-11-12T04:18:55.673Z,1020.33
2022-11-12T04:19:55.632Z,1020.34
2022-11-12T04:20:55.753Z,1020.28
2022-11-12T04:21:55.716Z,1020.28
2022-11-12T04:22:55.639Z,1020.24
2022-11-12T04:23:55.660Z,1020.23
2022-11-12T04:24:55.648Z,1020.26
2022-11-12T04:25:55.260Z,1020.26
2022-11-12T04:26:55.691Z,1020.31
2022-11-12T04:27:57.250Z,1020.31
2022-11-12T04:28:55.238Z,1020.36
2022-11-12T04:29:55.227Z,1020.28
2022-11-12T04:30:55.417Z,1020.30
2022-11-12T04:31:55.228Z,1020.27
2022-11-12T04:32:55.696Z,1020.25
2022-11-12T04:33:55.591Z,1020.24
2022-11-12T04:34:55.826Z,1020.25
2022-11-12T04:35:55.219Z,1020.30
2022-11-12T04:36:55.196Z,1020.26
2022-11-12T04:37:55.640Z,1020.17
2022-11-12T04:38:55.556Z,1020.16
2022-11-12T04:39:55.616Z,1020.17
2022-11-12T04:40:55.452Z,1020.16
2022-11-12T04:41:55.634Z,1020.19
2022-11-12T04:42:55.595Z,1020.18
2022-11-12T04:43:55.144Z,1020.18
2022-11-12T04:44:55.235Z,1020.15
2022-11-12T04:45:55.614Z,1020.15
2022-11-12T04:46:55.305Z,1020.14
2022-11-12T04:47:55.644Z,1020.18
2022-11-12T04:48:55.334Z,1020.20
2022-11-12T04:49:55.663Z,1020.22
2022-11-12T04:50:56.060Z,1020.20
2022-11-12T04:51:55.663Z,1020.18
2022-11-12T04:52:55.672Z,1020.15
2022-11-12T04:53:55.081Z,1020.15
2022-11-12T04:54:56.032Z,1020.13
2022-11-12T04:55:55.170Z,1020.14
2022-11-12T04:56:55.192Z,1020.17
2022-11-12T04:58:00.402Z,1020.19
2022-11-12T04:58:55.190Z,1020.18
2022-11-12T04:59:55.221Z,1020.17
2022-11-12T05:00:55.462Z,1020.17
2022-11-12T05:01:55.028Z,1020.18
2022-11-12T05:02:55.028Z,1020.18
2022-11-12T05:03:55.453Z,1020.21
2022-11-12T05:04:55.007Z,1020.18
2022-11-12T05:05:55.029Z,1020.17
2022-11-12T05:06:55.069Z,1020.22
2022-11-12T05:07:55.028Z,1020.16
2022-11-12T05:08:55.047Z,1020.15
2022-11-12T05:09:55.267Z,1020.13
2022-11-12T05:10:55.266Z,1020.10
2022-11-12T05:11:55.084Z,1020.09
2022-11-12T05:12:55.083Z,1020.10
2022-11-12T05:13:55.095Z,1020.11
2022-11-12T05:14:55.083Z,1020.05
2022-11-12T05:15:55.037Z,1020.04
2022-11-12T05:16:55.659Z,1020.00
2022-11-12T05:17:55.110Z,1019.96
2022-11-12T05:18:54.925Z,1019.99
2022-11-12T05:19:54.936Z,1020.01
2022-11-12T05:20:55.383Z,1019.99
2022-11-12T05:21:55.063Z,1019.99
2022-11-12T05:23:06.413Z,1020.03
2022-11-12T05:23:54.931Z,1020.03
2022-11-12T05:24:54.935Z,1019.99
2022-11-12T05:25:54.942Z,1019.97
2022-11-12T05:26:54.961Z,1019.98
2022-11-12T05:27:54.862Z,1020.00
2022-11-12T05:28:55.232Z,1020.01
2022-11-12T05:29:54.970Z,1020.03
2022-11-12T05:30:54.979Z,1020.03
2022-11-12T05:31:54.989Z,1019.99
2022-11-12T05:32:55.001Z,1020.01
2022-11-12T05:33:54.998Z,1020.01
2022-11-12T05:34:54.810Z,1019.99
2022-11-12T05:35:55.010Z,1019.98
2022-11-12T05:36:54.839Z,1020.01
2022-11-12T05:37:54.800Z,1020.02
2022-11-12T05:38:55.031Z,1019.98
2022-11-12T05:39:55.029Z,1019.99
2022-11-12T05:40:55.039Z,1020.00
2022-11-12T05:42:12.055Z,1020.00
2022-11-12T05:42:55.056Z,1020.02
2022-11-12T05:43:54.775Z,1020.02
2022-11-12T05:44:54.767Z,1020.03
2022-11-12T05:45:54.768Z,1020.01
2022-11-12T05:46:54.738Z,1020.04
2022-11-12T05:47:54.757Z,1019.98
2022-11-12T05:48:54.748Z,1020.10
2022-11-12T05:49:54.727Z,1020.08
2022-11-12T05:51:54.726Z,1020.07
2022-11-12T05:52:54.767Z,1020.07
2022-11-12T05:53:54.687Z,1020.07
2022-11-12T05:54:54.764Z,1020.09
2022-11-12T05:55:54.776Z,1020.07
2022-11-12T05:56:54.783Z,1020.06
2022-11-12T05:57:54.784Z,1020.08
2022-11-12T05:58:54.669Z,1020.08
2022-11-12T05:59:54.794Z,1020.01
2022-11-12T06:00:54.988Z,1020.02
2022-11-12T06:01:54.771Z,1020.01
2022-11-12T06:02:55.090Z,1020.02
2022-11-12T06:03:54.985Z,1019.96
2022-11-12T06:04:55.001Z,1020.00
2022-11-12T06:05:54.672Z,1020.01
2022-11-12T06:06:55.082Z,1020.02
2022-11-12T06:07:54.625Z,1020.02
2022-11-12T06:08:54.653Z,1020.09
2022-11-12T06:09:54.611Z,1020.04
2022-11-12T06:10:55.032Z,1020.07
2022-11-12T06:11:55.041Z,1020.04
2022-11-12T06:12:54.640Z,1020.04
2022-11-12T06:13:55.052Z,1019.99
2022-11-12T06:14:54.690Z,1020.04
2022-11-12T06:15:55.078Z,1019.98
2022-11-12T06:16:54.599Z,1020.01
2022-11-12T06:17:54.677Z,1020.03
2022-11-12T06:18:54.552Z,1020.05
2022-11-12T06:19:54.529Z,1020.08
2022-11-12T06:20:54.530Z,1020.05
2022-11-12T06:21:54.517Z,1020.05
2022-11-12T06:22:54.547Z,1020.05
2022-11-12T06:23:54.709Z,1020.03
2022-11-12T06:24:54.638Z,1020.05
2022-11-12T06:25:54.518Z,1020.03
2022-11-12T06:26:54.727Z,1020.02
2022-11-12T06:27:54.787Z,1020.06
2022-11-12T06:28:54.546Z,1020.07
2022-11-12T06:29:54.954Z,1020.02
2022-11-12T06:30:54.975Z,1020.05
2022-11-12T06:31:54.835Z,1020.02
2022-11-12T06:32:55.049Z,1020.03
2022-11-12T06:33:55.025Z,1019.98
2022-11-12T06:34:54.443Z,1020.05
2022-11-12T06:35:54.575Z,1020.02
2022-11-12T06:36:54.794Z,1020.03
2022-11-12T06:37:54.855Z,1020.05
2022-11-12T06:38:55.314Z,1020.04
2022-11-12T06:39:54.423Z,1020.01
2022-11-12T06:40:54.623Z,1020.02
2022-11-12T06:41:55.861Z,1020.02
2022-11-12T06:42:55.224Z,1020.04
2022-11-12T06:43:54.403Z,1020.08
2022-11-12T06:44:54.531Z,1020.07
2022-11-12T06:45:54.691Z,1020.15
2022-11-12T06:46:54.456Z,1020.11
2022-11-12T06:47:54.461Z,1020.13
2022-11-12T06:48:54.487Z,1020.14
2022-11-12T06:49:54.485Z,1020.14
2022-11-12T06:50:54.591Z,1020.14
2022-11-12T06:51:54.542Z,1020.14
2022-11-12T06:52:54.487Z,1020.14
2022-11-12T06:53:54.318Z,1020.18
2022-11-12T06:54:54.499Z,1020.15
2022-11-12T06:55:54.720Z,1020.24
2022-11-12T06:56:54.317Z,1020.18
2022-11-12T06:57:54.322Z,1020.21
2022-11-12T06:58:54.328Z,1020.23
2022-11-12T06:59:54.283Z,1020.18
2022-11-12T07:00:54.337Z,1020.22
2022-11-12T07:01:54.368Z,1020.23
2022-11-12T07:02:54.570Z,1020.23
2022-11-12T07:03:54.667Z,1020.27
2022-11-12T07:04:54.247Z,1020.32
2022-11-12T07:05:54.235Z,1020.26
2022-11-12T07:06:54.524Z,1020.30
2022-11-12T07:07:54.245Z,1020.27
2022-11-12T07:08:54.227Z,1020.28
2022-11-12T07:09:54.206Z,1020.33
2022-11-12T07:10:54.307Z,1020.29
2022-11-12T07:11:54.256Z,1020.32
2022-11-12T07:12:54.274Z,1020.32
2022-11-12T07:13:54.285Z,1020.29
2022-11-12T07:14:54.294Z,1020.33
2022-11-12T07:15:54.303Z,1020.34
2022-11-12T07:16:54.363Z,1020.34
2022-11-12T07:17:54.449Z,1020.40
2022-11-12T07:18:54.342Z,1020.40
2022-11-12T07:19:56.273Z,1020.36
2022-11-12T07:20:54.392Z,1020.42
2022-11-12T07:21:54.383Z,1020.41
2022-11-12T07:22:54.270Z,1020.38
2022-11-12T07:23:54.171Z,1020.44
2022-11-12T07:24:54.151Z,1020.47
2022-11-12T07:25:54.360Z,1020.45
2022-11-12T07:26:54.449Z,1020.46
2022-11-12T07:27:54.310Z,1020.48
2022-11-12T07:28:54.480Z,1020.47
2022-11-12T07:29:54.491Z,1020.46
2022-11-12T07:30:54.499Z,1020.45
2022-11-12T07:31:54.587Z,1020.43
2022-11-12T07:32:54.133Z,1020.46
2022-11-12T07:33:54.128Z,1020.47
2022-11-12T07:34:54.139Z,1020.51
2022-11-12T07:35:54.039Z,1020.55
2022-11-12T07:36:54.155Z,1020.57
2022-11-12T07:37:59.453Z,1020.52
2022-11-12T07:38:54.097Z,1020.48
2022-11-12T07:39:54.249Z,1020.49
2022-11-12T07:40:54.259Z,1020.48
2022-11-12T07:41:54.008Z,1020.48
2022-11-12T07:42:54.026Z,1020.43
2022-11-12T07:43:54.017Z,1020.50
2022-11-12T07:44:53.989Z,1020.45
2022-11-12T07:45:54.019Z,1020.45
2022-11-12T07:46:54.023Z,1020.46
2022-11-12T07:47:54.027Z,1020.48
2022-11-12T07:48:54.025Z,1020.51
2022-11-12T07:49:53.973Z,1020.48
2022-11-12T07:50:54.047Z,1020.45
2022-11-12T07:51:54.055Z,1020.43
2022-11-12T07:52:54.065Z,1020.50
2022-11-12T07:53:58.974Z,1020.46
2022-11-12T07:54:54.064Z,1020.44
2022-11-12T07:55:54.073Z,1020.52
2022-11-12T07:56:54.083Z,1020.45
2022-11-12T07:57:54.093Z,1020.53
2022-11-12T07:58:53.915Z,1020.49
2022-11-12T07:59:54.187Z,1020.54
2022-11-12T08:00:54.202Z,1020.54
2022-11-12T08:01:54.240Z,1020.50
2022-11-12T08:02:54.171Z,1020.44
2022-11-12T08:03:53.889Z,1020.52
2022-11-12T08:04:53.932Z,1020.47
2022-11-12T08:05:54.238Z,1020.53
2022-11-12T08:06:54.205Z,1020.46
2022-11-12T08:07:54.336Z,1020.47
2022-11-12T08:08:54.247Z,1020.48
2022-11-12T08:09:54.252Z,1020.53
2022-11-12T08:10:53.838Z,1020.48
2022-11-12T08:11:54.178Z,1020.55
2022-11-12T08:12:53.884Z,1020.58
2022-11-12T08:13:53.821Z,1020.54
2022-11-12T08:14:53.879Z,1020.54
2022-11-12T08:15:53.977Z,1020.56
2022-11-12T08:16:53.810Z,1020.55
2022-11-12T08:17:53.919Z,1020.60
2022-11-12T08:18:53.843Z,1020.53
2022-11-12T08:19:54.158Z,1020.51
2022-11-12T08:20:53.857Z,1020.52
2022-11-12T08:21:53.834Z,1020.50
2022-11-12T08:22:53.836Z,1020.47
2022-11-12T08:23:53.768Z,1020.44
2022-11-12T08:24:53.887Z,1020.42
2022-11-12T08:25:53.948Z,1020.47
2022-11-12T08:26:54.188Z,1020.45
2022-11-12T08:27:53.736Z,1020.44
2022-11-12T08:28:54.495Z,1020.46
2022-11-12T08:29:54.396Z,1020.45
2022-11-12T08:30:53.995Z,1020.47
2022-11-12T08:31:54.614Z,1020.42
2022-11-12T08:32:54.625Z,1020.36
2022-11-12T08:33:54.384Z,1020.39
2022-11-12T08:34:54.173Z,1020.37
2022-11-12T08:35:53.730Z,1020.37
2022-11-12T08:36:53.664Z,1020.36
2022-11-12T08:37:53.763Z,1020.41
2022-11-12T08:38:53.759Z,1020.35
2022-11-12T08:39:53.761Z,1020.37
2022-11-12T08:40:53.861Z,1020.39
2022-11-12T08:41:53.761Z,1020.39
2022-11-12T08:42:53.869Z,1020.34
2022-11-12T08:43:53.661Z,1020.37
2022-11-12T08:44:55.203Z,1020.40
2022-11-12T08:45:54.092Z,1020.46
2022-11-12T08:46:53.602Z,1020.42
2022-11-12T08:47:53.590Z,1020.42
2022-11-12T08:48:54.010Z,1020.40
2022-11-12T08:49:53.601Z,1020.44
2022-11-12T08:50:53.640Z,1020.39
2022-11-12T08:51:53.580Z,1020.42
2022-11-12T08:52:53.598Z,1020.43
2022-11-12T08:53:53.728Z,1020.47
2022-11-12T08:54:53.738Z,1020.40
2022-11-12T08:55:53.848Z,1020.46
2022-11-12T08:56:53.858Z,1020.47
2022-11-12T08:57:53.858Z,1020.47
2022-11-12T08:58:53.968Z,1020.40
2022-11-12T08:59:53.568Z,1020.42
2022-11-12T09:00:54.112Z,1020.38
2022-11-12T09:01:53.537Z,1020.33
2022-11-12T09:02:53.898Z,1020.34
2022-11-12T09:03:54.006Z,1020.38
2022-11-12T09:04:53.706Z,1020.33
2022-11-12T09:05:53.509Z,1020.33
2022-11-12T09:06:54.341Z,1020.35
2022-11-12T09:07:53.991Z,1020.30
2022-11-12T09:08:53.455Z,1020.30
2022-11-12T09:09:53.453Z,1020.30
2022-11-12T09:10:54.565Z,1020.28
2022-11-12T09:13:20.073Z,1020.30
2022-11-12T09:14:19.417Z,1020.30
2022-11-12T09:16:19.499Z,1020.30
2022-11-12T09:17:19.505Z,1020.31
2022-11-12T09:18:19.605Z,1020.25
2022-11-12T09:19:19.504Z,1020.24
2022-11-12T09:20:19.721Z,1020.23
2022-11-12T09:21:19.352Z,1020.21
2022-11-12T09:22:19.524Z,1020.25
2022-11-12T09:23:19.843Z,1020.25
2022-11-12T09:24:19.349Z,1020.27
2022-11-12T09:25:19.343Z,1020.25
2022-11-12T09:26:19.343Z,1020.26
2022-11-12T09:27:19.361Z,1020.27
2022-11-12T09:28:19.362Z,1020.31
2022-11-12T09:29:19.371Z,1020.34
2022-11-12T09:30:19.380Z,1020.34
2022-11-12T09:31:19.424Z,1020.30
2022-11-12T09:32:19.480Z,1020.27
2022-11-12T09:33:19.600Z,1020.27
2022-11-12T09:34:19.611Z,1020.27
2022-11-12T09:35:19.430Z,1020.26
2022-11-12T09:36:19.710Z,1020.17
2022-11-12T09:37:19.733Z,1020.15
2022-11-12T09:38:19.229Z,1020.12
2022-11-12T09:39:19.438Z,1020.13
2022-11-12T09:40:19.250Z,1020.15
2022-11-12T09:41:19.900Z,1020.16
2022-11-12T09:42:19.208Z,1020.13
2022-11-12T09:43:19.871Z,1020.08
2022-11-12T09:44:19.883Z,1020.13
2022-11-12T09:45:19.239Z,1020.17
2022-11-12T09:46:27.703Z,1020.16
2022-11-12T09:47:19.577Z,1020.16
2022-11-12T09:48:19.328Z,1020.15
2022-11-12T09:49:19.918Z,1020.18
2022-11-12T09:50:20.131Z,1020.14
2022-11-12T09:51:19.337Z,1020.16
2022-11-12T09:52:19.137Z,1020.10
2022-11-12T09:53:19.210Z,1020.15
2022-11-12T09:54:19.433Z,1020.11
2022-11-12T09:55:19.765Z,1020.15
2022-11-12T09:56:19.236Z,1020.11
2022-11-12T09:57:19.555Z,1020.15
2022-11-12T09:58:19.974Z,1020.13
2022-11-12T09:59:19.367Z,1020.11
2022-11-12T10:00:19.105Z,1020.10
2022-11-12T10:01:19.114Z,1020.20
2022-11-12T10:02:19.073Z,1020.14
2022-11-12T10:03:19.083Z,1020.08
2022-11-12T10:04:19.074Z,1020.10
2022-11-12T10:05:19.073Z,1020.07
2022-11-12T10:06:19.530Z,1020.04
2022-11-12T10:07:19.152Z,1020.02
2022-11-12T10:08:19.049Z,1020.04
2022-11-12T10:09:19.222Z,1020.07
2022-11-12T10:10:19.315Z,1020.05
2022-11-12T10:11:19.331Z,1019.99
2022-11-12T10:12:19.452Z,1020.01
2022-11-12T10:13:19.062Z,1020.04
2022-11-12T10:14:19.065Z,1020.02
2022-11-12T10:15:19.081Z,1020.05
2022-11-12T10:16:19.082Z,1020.06
2022-11-12T10:17:19.011Z,1020.11
2022-11-12T10:18:18.981Z,1020.07
2022-11-12T10:19:19.319Z,1020.10
2022-11-12T10:20:19.350Z,1020.16
2022-11-12T10:21:19.299Z,1020.17
2022-11-12T10:22:19.399Z,1020.16
2022-11-12T10:23:19.221Z,1020.14
2022-11-12T10:24:18.921Z,1020.14
2022-11-12T10:25:19.550Z,1020.14
2022-11-12T10:26:19.139Z,1020.08
2022-11-12T10:27:19.350Z,1020.15
2022-11-12T10:28:18.946Z,1020.09
2022-11-12T10:29:19.628Z,1020.16
2022-11-12T10:30:19.369Z,1020.13
2022-11-12T10:31:19.708Z,1020.09
2022-11-12T10:32:19.589Z,1020.14
2022-11-12T10:33:18.887Z,1020.13
2022-11-12T10:34:18.848Z,1020.07
2022-11-12T10:35:18.863Z,1020.05
2022-11-12T10:36:18.867Z,1020.03
2022-11-12T10:37:18.847Z,1020.03
2022-11-12T10:38:18.887Z,1020.04
2022-11-12T10:39:18.828Z,1019.99
2022-11-12T10:40:18.931Z,1020.02
2022-11-12T10:41:18.896Z,1020.08
2022-11-12T10:42:18.916Z,1020.02
2022-11-12T10:43:18.923Z,1020.03
2022-11-12T10:44:18.871Z,1020.01
2022-11-12T10:45:18.821Z,1019.96
2022-11-12T10:46:18.866Z,1020.02
2022-11-12T10:47:18.936Z,1019.96
2022-11-12T10:48:23.057Z,1019.96
2022-11-12T10:49:19.016Z,1019.96
2022-11-12T10:50:19.097Z,1019.95
2022-11-12T10:51:18.865Z,1019.98
2022-11-12T10:52:18.774Z,1019.95
2022-11-12T10:53:18.732Z,1019.94
2022-11-12T10:54:18.715Z,1019.91
2022-11-12T10:55:18.715Z,1019.87
2022-11-12T10:56:18.744Z,1019.86
2022-11-12T10:57:18.742Z,1019.83
2022-11-12T10:58:18.750Z,1019.84
2022-11-12T10:59:18.743Z,1019.84
2022-11-12T11:00:18.755Z,1019.85
2022-11-12T11:01:18.767Z,1019.86
2022-11-12T11:02:18.840Z,1019.92
2022-11-12T11:03:18.692Z,1019.86
2022-11-12T11:04:18.784Z,1019.91
2022-11-12T11:05:18.671Z,1019.87
2022-11-12T11:06:18.635Z,1019.90
2022-11-12T11:07:18.693Z,1019.88
2022-11-12T11:08:18.812Z,1019.91
2022-11-12T11:09:18.640Z,1019.91
2022-11-12T11:10:18.822Z,1019.97
2022-11-12T11:11:18.823Z,1019.94
2022-11-12T11:12:18.689Z,1019.98
2022-11-12T11:13:18.643Z,1019.92
2022-11-12T11:14:18.607Z,1019.96
2022-11-12T11:15:18.591Z,1019.95
2022-11-12T11:16:18.669Z,1019.92
2022-11-12T11:17:18.729Z,1019.97
2022-11-12T11:18:18.741Z,1019.92
2022-11-12T11:19:18.603Z,1019.95
2022-11-12T11:20:18.550Z,1019.98
2022-11-12T11:21:18.747Z,1019.98
2022-11-12T11:22:18.552Z,1019.94
2022-11-12T11:23:18.554Z,1019.92
2022-11-12T11:24:18.722Z,1019.88
2022-11-12T11:25:18.726Z,1019.89
2022-11-12T11:26:18.728Z,1019.86
2022-11-12T11:27:18.738Z,1019.88
2022-11-12T11:28:18.798Z,1019.87
2022-11-12T11:29:18.695Z,1019.82
2022-11-12T11:30:18.606Z,1019.81
2022-11-12T11:31:18.569Z,1019.78
2022-11-12T11:32:18.485Z,1019.78
2022-11-12T11:33:19.931Z,1019.81
2022-11-12T11:34:19.057Z,1019.77
2022-11-12T11:35:19.217Z,1019.80
2022-11-12T11:36:18.449Z,1019.84
2022-11-12T11:37:18.598Z,1019.77
2022-11-12T11:38:18.440Z,1019.79
2022-11-12T11:39:18.516Z,1019.80
2022-11-12T11:40:18.616Z,1019.78
2022-11-12T11:41:19.046Z,1019.71
2022-11-12T11:42:19.078Z,1019.76
2022-11-12T11:43:19.257Z,1019.76
2022-11-12T11:44:19.153Z,1019.72
2022-11-12T11:45:18.646Z,1019.72
2022-11-12T11:46:18.865Z,1019.68
2022-11-12T11:47:18.378Z,1019.65
2022-11-12T11:48:18.569Z,1019.65
2022-11-12T11:49:18.445Z,1019.68
2022-11-12T11:50:18.345Z,1019.71
2022-11-12T11:51:23.425Z,1019.71
2022-11-12T11:52:18.495Z,1019.70
2022-11-12T11:53:18.705Z,1019.67
2022-11-12T11:54:18.314Z,1019.64
2022-11-12T11:55:18.923Z,1019.64
2022-11-12T11:56:18.964Z,1019.58
2022-11-12T11:57:19.344Z,1019.60
2022-11-12T11:58:18.942Z,1019.60
2022-11-12T11:59:18.428Z,1019.60
2022-11-12T12:00:18.345Z,1019.58
2022-11-12T12:01:18.291Z,1019.59
2022-11-12T12:02:18.361Z,1019.64
2022-11-12T12:03:18.421Z,1019.58
2022-11-12T12:04:18.263Z,1019.61
2022-11-12T12:05:18.585Z,1019.57
2022-11-12T12:06:18.625Z,1019.61
2022-11-12T12:07:18.412Z,1019.57
2022-11-12T12:08:19.694Z,1019.62
2022-11-12T12:09:18.721Z,1019.55
2022-11-12T12:10:18.821Z,1019.57